createdAt,value
2019-02-18T00:00:46.448Z,100362.09
2019-02-18T00:03:51.706Z,100361.89
2019-02-18T00:06:56.906Z,100363.48
2019-02-18T00:10:02.102Z,100367.02
2019-02-18T00:13:07.319Z,100369.84
2019-02-18T00:16:12.479Z,100367.23
2019-02-18T00:19:17.765Z,100375.53
2019-02-18T00:22:22.932Z,100367.00
2019-02-18T00:25:28.064Z,100372.64
2019-02-18T00:28:37.873Z,100372.64
2019-02-18T00:31:43.071Z,100368.19
2019-02-18T00:34:48.221Z,100365.66
2019-02-18T00:37:53.417Z,100366.63
2019-02-18T00:40:58.562Z,100367.97
2019-02-18T00:44:03.750Z,100376.59
2019-02-18T00:47:08.875Z,100370.50
2019-02-18T00:50:14.021Z,100367.04
2019-02-18T00:53:19.210Z,100368.95
2019-02-18T00:56:24.375Z,100367.74
2019-02-18T00:59:30.976Z,100367.39
2019-02-18T01:02:36.177Z,100364.27
2019-02-18T01:05:41.304Z,100354.18
2019-02-18T01:08:46.475Z,100359.46
2019-02-18T01:11:51.624Z,100358.38
2019-02-18T01:14:56.982Z,100357.80
2019-02-18T01:18:02.167Z,100353.23
2019-02-18T01:21:07.551Z,100356.33
2019-02-18T01:24:12.713Z,100359.70
2019-02-18T01:27:17.866Z,100360.77
2019-02-18T01:30:23.053Z,100359.94
2019-02-18T01:33:28.230Z,100360.89
2019-02-18T01:36:33.356Z,100356.08
2019-02-18T01:39:38.469Z,100358.73
2019-02-18T01:42:43.676Z,100351.16
2019-02-18T01:45:48.838Z,100351.48
2019-02-18T01:48:53.961Z,100350.78
2019-02-18T01:51:59.107Z,100354.58
2019-02-18T01:55:04.501Z,100346.64
2019-02-18T01:58:09.663Z,100343.28
2019-02-18T02:01:18.432Z,100338.31
2019-02-18T02:04:23.697Z,100338.16
2019-02-18T02:07:28.805Z,100328.30
2019-02-18T02:10:34.155Z,100330.31
2019-02-18T02:13:39.303Z,100330.38
2019-02-18T02:16:44.564Z,100322.64
2019-02-18T02:19:49.749Z,100325.14
2019-02-18T02:22:55.010Z,100326.20
2019-02-18T02:26:00.229Z,100321.82
2019-02-18T02:29:05.436Z,100320.11
2019-02-18T02:32:10.624Z,100327.64
2019-02-18T02:35:15.896Z,100314.55
2019-02-18T02:38:21.018Z,100316.11
2019-02-18T02:41:26.261Z,100315.70
2019-02-18T02:44:31.657Z,100313.72
2019-02-18T02:47:36.828Z,100310.77
2019-02-18T02:50:41.993Z,100316.03
2019-02-18T02:53:47.162Z,100310.92
2019-02-18T02:56:52.335Z,100311.80
2019-02-18T02:59:57.575Z,100307.36
2019-02-18T03:03:02.735Z,100304.60
2019-02-18T03:06:08.003Z,100302.56
2019-02-18T03:09:13.166Z,100305.93
2019-02-18T03:12:18.337Z,100300.64
2019-02-18T03:15:25.022Z,100302.07
2019-02-18T03:18:30.279Z,100292.13
2019-02-18T03:21:35.583Z,100288.43
2019-02-18T03:25:16.277Z,100293.41
2019-02-18T03:28:59.289Z,100296.44
2019-02-18T03:32:04.478Z,100299.54
2019-02-18T03:35:09.640Z,100300.38
2019-02-18T03:38:14.858Z,100294.22
2019-02-18T03:41:20.040Z,100298.00
2019-02-18T03:44:25.317Z,100300.14
2019-02-18T03:47:30.428Z,100308.72
2019-02-18T03:50:35.637Z,100312.11
2019-02-18T03:53:40.783Z,100312.00
2019-02-18T03:56:46.059Z,100309.35
2019-02-18T03:59:51.240Z,100307.73
2019-02-18T04:02:56.408Z,100310.67
2019-02-18T04:06:01.663Z,100309.16
2019-02-18T04:09:07.290Z,100312.80
2019-02-18T04:12:12.490Z,100318.09
2019-02-18T04:15:17.640Z,100311.91
2019-02-18T04:18:22.835Z,100312.43
2019-02-18T04:21:28.056Z,100313.12
2019-02-18T04:24:33.234Z,100314.04
2019-02-18T04:27:38.423Z,100305.36
2019-02-18T04:30:43.663Z,100312.86
2019-02-18T04:33:48.837Z,100314.50
2019-02-18T04:36:54.022Z,100303.55
2019-02-18T04:39:59.148Z,100301.39
2019-02-18T04:43:04.304Z,100306.36
2019-02-18T04:46:09.520Z,100305.53
2019-02-18T04:49:14.703Z,100303.92
2019-02-18T04:52:19.904Z,100301.95
2019-02-18T04:55:25.158Z,100306.88
2019-02-18T04:58:30.375Z,100305.36
2019-02-18T05:01:35.529Z,100297.77
2019-02-18T05:04:40.658Z,100301.81
2019-02-18T05:07:45.848Z,100300.88
2019-02-18T05:10:51.048Z,100304.20
2019-02-18T05:13:56.313Z,100300.86
2019-02-18T05:17:01.552Z,100296.17
2019-02-18T05:20:06.821Z,100298.27
2019-02-18T05:23:11.933Z,100296.03
2019-02-18T05:26:18.200Z,100290.09
2019-02-18T05:29:23.349Z,100292.86
2019-02-18T05:32:28.543Z,100290.20
2019-02-18T05:35:33.651Z,100293.72
2019-02-18T05:38:38.818Z,100294.97
2019-02-18T05:41:43.945Z,100301.02
2019-02-18T05:44:49.150Z,100304.23
2019-02-18T05:47:54.375Z,100297.05
2019-02-18T05:50:59.556Z,100297.30
2019-02-18T05:54:04.641Z,100303.43
2019-02-18T05:57:09.848Z,100306.36
2019-02-18T06:00:15.581Z,100306.77
2019-02-18T06:03:20.680Z,100310.05
2019-02-18T06:06:25.865Z,100309.58
2019-02-18T06:09:31.115Z,100303.56
2019-02-18T06:12:36.295Z,100306.55
2019-02-18T06:15:41.553Z,100304.00
2019-02-18T06:18:46.684Z,100309.17
2019-02-18T06:21:59.040Z,100304.41
2019-02-18T06:25:04.191Z,100310.88
2019-02-18T06:28:09.390Z,100310.69
2019-02-18T06:31:14.497Z,100310.69
2019-02-18T06:34:19.774Z,100314.26
2019-02-18T06:37:24.876Z,100320.86
2019-02-18T06:40:30.069Z,100322.08
2019-02-18T06:43:35.293Z,100321.28
2019-02-18T06:46:59.370Z,100329.91
2019-02-18T06:50:05.012Z,100328.69
2019-02-18T06:53:10.190Z,100336.11
2019-02-18T06:56:17.450Z,100329.57
2019-02-18T06:59:29.443Z,100327.20
2019-02-18T07:02:38.835Z,100329.11
2019-02-18T07:06:04.089Z,100329.20
2019-02-18T07:09:51.229Z,100332.56
2019-02-18T07:12:54.141Z,100330.06
2019-02-18T07:15:59.322Z,100332.45
2019-02-18T07:19:04.464Z,100336.94
2019-02-18T07:22:09.591Z,100330.78
2019-02-18T07:25:14.836Z,100334.80
2019-02-18T07:28:20.183Z,100334.72
2019-02-18T07:31:25.356Z,100328.53
2019-02-18T07:34:30.529Z,100327.27
2019-02-18T07:37:35.686Z,100326.90
2019-02-18T07:40:40.931Z,100328.80
2019-02-18T07:43:46.139Z,100321.77
2019-02-18T07:46:51.337Z,100324.81
2019-02-18T07:49:56.538Z,100325.41
2019-02-18T07:53:01.803Z,100331.09
2019-02-18T07:56:07.083Z,100328.14
2019-02-18T07:59:12.205Z,100334.80
2019-02-18T08:02:17.386Z,100333.92
2019-02-18T08:05:22.529Z,100337.29
2019-02-18T08:08:27.718Z,100337.63
2019-02-18T08:11:32.815Z,100336.05
2019-02-18T08:14:37.971Z,100339.52
2019-02-18T08:17:43.141Z,100339.17
2019-02-18T08:20:48.364Z,100339.52
2019-02-18T08:24:00.166Z,100329.80
2019-02-18T08:27:00.510Z,100335.27
2019-02-18T08:30:06.435Z,100340.04
2019-02-18T08:33:11.641Z,100332.27
2019-02-18T08:36:16.765Z,100333.59
2019-02-18T08:39:21.926Z,100337.10
2019-02-18T08:42:27.041Z,100328.69
2019-02-18T08:45:32.210Z,100334.16
2019-02-18T08:48:37.388Z,100324.49
2019-02-18T08:51:42.497Z,100324.13
2019-02-18T08:54:56.199Z,100319.47
2019-02-18T08:57:54.639Z,100321.35
2019-02-18T09:01:02.576Z,100318.97
2019-02-18T09:04:06.772Z,100320.73
2019-02-18T09:07:11.995Z,100313.08
2019-02-18T09:10:17.139Z,100313.10
2019-02-18T09:13:22.278Z,100307.72
2019-02-18T09:16:27.487Z,100298.58
2019-02-18T09:19:32.600Z,100304.84
2019-02-18T09:22:57.986Z,100310.53
2019-02-18T09:26:04.198Z,100305.49
2019-02-18T09:29:11.788Z,100304.93
2019-02-18T09:32:16.889Z,100301.34
2019-02-18T09:35:22.122Z,100298.95
2019-02-18T09:38:27.235Z,100298.81
2019-02-18T09:41:32.430Z,100292.17
2019-02-18T09:44:37.583Z,100291.72
2019-02-18T09:47:42.702Z,100287.75
2019-02-18T09:50:47.827Z,100288.59
2019-02-18T09:53:52.958Z,100280.37
2019-02-18T09:56:58.176Z,100280.80
2019-02-18T10:00:03.457Z,100271.03
2019-02-18T10:03:08.862Z,100270.50
2019-02-18T10:06:14.076Z,100269.33
2019-02-18T10:09:19.163Z,100260.77
2019-02-18T10:12:24.280Z,100268.69
2019-02-18T10:15:29.451Z,100260.44
2019-02-18T10:18:34.670Z,100254.19
2019-02-18T10:21:39.840Z,100257.42
2019-02-18T10:24:50.663Z,100252.47
2019-02-18T10:27:51.913Z,100251.20
2019-02-18T10:30:57.160Z,100249.05
2019-02-18T10:34:02.263Z,100247.63
2019-02-18T10:37:07.444Z,100249.63
2019-02-18T10:40:12.735Z,100238.48
2019-02-18T10:43:17.923Z,100230.77
2019-02-18T10:46:23.029Z,100235.35
2019-02-18T10:49:28.279Z,100223.67
2019-02-18T10:52:33.481Z,100222.41
2019-02-18T10:55:38.589Z,100212.75
2019-02-18T10:58:44.827Z,100207.67
2019-02-18T11:01:50.019Z,100204.77
2019-02-18T11:04:55.174Z,100200.82
2019-02-18T11:08:00.442Z,100198.52
2019-02-18T11:11:05.534Z,100197.34
2019-02-18T11:14:10.685Z,100194.66
2019-02-18T11:17:16.148Z,100190.41
2019-02-18T11:20:21.243Z,100185.98
2019-02-18T11:23:26.457Z,100177.83
2019-02-18T11:26:31.627Z,100169.48
2019-02-18T11:29:36.845Z,100159.64
2019-02-18T11:32:41.967Z,100157.29
2019-02-18T11:35:47.163Z,100154.13
2019-02-18T11:38:53.598Z,100150.45
2019-02-18T11:41:58.845Z,100146.00
2019-02-18T11:45:04.180Z,100140.27
2019-02-18T11:48:09.408Z,100134.24
2019-02-18T11:51:14.564Z,100130.08
2019-02-18T11:54:19.775Z,100118.41
2019-02-18T11:57:24.918Z,100124.84
2019-02-18T12:00:30.082Z,100115.52
2019-02-18T12:03:35.228Z,100105.44
2019-02-18T12:06:40.368Z,100098.25
2019-02-18T12:09:45.566Z,100093.76
2019-02-18T12:12:50.639Z,100086.47
2019-02-18T12:15:55.811Z,100074.14
2019-02-18T12:19:01.117Z,100068.84
2019-02-18T12:22:06.350Z,100073.11
2019-02-18T12:25:11.883Z,100064.03
2019-02-18T12:28:17.465Z,100050.30
2019-02-18T12:31:22.627Z,100051.31
2019-02-18T12:34:27.872Z,100047.83
2019-02-18T12:37:33.222Z,100037.58
2019-02-18T12:40:38.332Z,100033.88
2019-02-18T12:43:43.614Z,100024.95
2019-02-18T12:46:48.836Z,100027.05
2019-02-18T12:49:54.118Z,100034.44
2019-02-18T12:52:59.344Z,100027.63
2019-02-18T12:56:04.478Z,100019.66
2019-02-18T12:59:09.724Z,100013.19
2019-02-18T13:02:14.985Z,100008.94
2019-02-18T13:05:20.185Z,100002.60
2019-02-18T13:08:25.359Z,100006.83
2019-02-18T13:11:30.538Z,99989.87
2019-02-18T13:14:35.716Z,99997.02
2019-02-18T13:17:42.739Z,99990.48
2019-02-18T13:20:47.806Z,99985.39
2019-02-18T13:23:54.768Z,99978.22
2019-02-18T13:26:59.881Z,99978.74
2019-02-18T13:30:08.382Z,99971.63
2019-02-18T13:33:13.667Z,99968.70
2019-02-18T13:36:18.843Z,99964.33
2019-02-18T13:39:23.972Z,99961.44
2019-02-18T13:42:29.173Z,99957.22
2019-02-18T13:45:34.388Z,99951.29
2019-02-18T13:48:39.618Z,99950.59
2019-02-18T13:51:44.803Z,99949.64
2019-02-18T13:54:50.371Z,99947.03
2019-02-18T13:57:55.487Z,99942.23
2019-02-18T14:01:00.662Z,99932.05
2019-02-18T14:04:05.797Z,99933.94
2019-02-18T14:07:10.924Z,99934.02
2019-02-18T14:10:16.100Z,99930.08
2019-02-18T14:13:21.243Z,99923.97
2019-02-18T14:16:26.416Z,99923.50
2019-02-18T14:19:31.498Z,99920.68
2019-02-18T14:22:36.666Z,99916.99
2019-02-18T14:25:41.842Z,99921.42
2019-02-18T14:28:47.008Z,99916.30
2019-02-18T14:31:52.234Z,99918.55
2019-02-18T14:34:58.098Z,99914.34
2019-02-18T14:38:03.241Z,99917.33
2019-02-18T14:41:08.703Z,99909.54
2019-02-18T14:44:14.275Z,99905.58
2019-02-18T14:47:19.394Z,99902.42
2019-02-18T14:50:24.576Z,99894.43
2019-02-18T14:53:29.763Z,99897.30
2019-02-18T14:56:34.830Z,99896.20
2019-02-18T14:59:40.020Z,99898.95
2019-02-18T15:02:45.247Z,99891.64
2019-02-18T15:05:51.280Z,99894.25
2019-02-18T15:08:56.451Z,99882.45
2019-02-18T15:12:01.644Z,99879.28
2019-02-18T15:15:07.186Z,99878.06
2019-02-18T15:18:12.395Z,99879.55
2019-02-18T15:21:17.541Z,99878.02
2019-02-18T15:24:23.354Z,99877.77
2019-02-18T15:27:28.509Z,99869.11
2019-02-18T15:30:33.703Z,99864.64
2019-02-18T15:33:38.838Z,99862.35
2019-02-18T15:36:44.013Z,99860.61
2019-02-18T15:39:49.201Z,99856.66
2019-02-18T15:42:54.425Z,99850.58
2019-02-18T15:45:59.549Z,99849.63
2019-02-18T15:49:04.696Z,99851.70
2019-02-18T15:52:09.901Z,99847.07
2019-02-18T15:55:15.181Z,99846.03
2019-02-18T15:58:20.338Z,99843.85
2019-02-18T16:01:28.596Z,99843.93
2019-02-18T16:04:34.080Z,99838.05
2019-02-18T16:07:39.231Z,99835.63
2019-02-18T16:10:44.385Z,99836.00
2019-02-18T16:13:49.506Z,99831.33
2019-02-18T16:16:54.693Z,99838.30
2019-02-18T16:20:00.314Z,99842.23
2019-02-18T16:23:05.420Z,99833.29
2019-02-18T16:26:10.602Z,99828.46
2019-02-18T16:29:15.814Z,99830.78
2019-02-18T16:32:21.029Z,99822.42
2019-02-18T16:35:26.244Z,99832.45
2019-02-18T16:38:31.516Z,99832.08
2019-02-18T16:41:36.640Z,99834.39
2019-02-18T16:44:41.855Z,99835.09
2019-02-18T16:47:47.046Z,99842.81
2019-02-18T16:50:52.207Z,99840.20
2019-02-18T16:53:57.584Z,99834.65
2019-02-18T16:57:02.710Z,99831.72
2019-02-18T17:00:17.206Z,99841.00
2019-02-18T17:03:22.453Z,99841.52
2019-02-18T17:06:27.646Z,99838.58
2019-02-18T17:09:32.884Z,99841.75
2019-02-18T17:12:38.043Z,99841.55
2019-02-18T17:15:43.509Z,99848.00
2019-02-18T17:18:48.680Z,99850.11
2019-02-18T17:21:53.792Z,99848.01
2019-02-18T17:24:59.171Z,99847.27
2019-02-18T17:28:04.371Z,99853.36
2019-02-18T17:31:09.554Z,99856.44
2019-02-18T17:34:14.698Z,99851.34
2019-02-18T17:37:19.958Z,99856.84
2019-02-18T17:40:25.485Z,99852.87
2019-02-18T17:43:31.634Z,99846.04
2019-02-18T17:46:36.850Z,99848.58
2019-02-18T17:49:42.012Z,99843.95
2019-02-18T17:52:47.457Z,99845.80
2019-02-18T17:55:52.686Z,99852.46
2019-02-18T17:58:57.834Z,99841.31
2019-02-18T18:02:03.053Z,99844.38
2019-02-18T18:05:09.106Z,99849.76
2019-02-18T18:08:14.344Z,99851.25
2019-02-18T18:11:19.612Z,99846.39
2019-02-18T18:14:24.964Z,99852.60
2019-02-18T18:17:30.315Z,99847.45
2019-02-18T18:20:35.512Z,99845.80
2019-02-18T18:23:40.637Z,99844.80
2019-02-18T18:26:45.785Z,99841.46
2019-02-18T18:29:50.989Z,99837.48
2019-02-18T18:32:56.185Z,99841.97
2019-02-18T18:36:01.418Z,99838.44
2019-02-18T18:39:06.998Z,99829.96
2019-02-18T18:42:12.832Z,99827.31
2019-02-18T18:45:20.246Z,99836.48
2019-02-18T18:48:25.455Z,99830.80
2019-02-18T18:51:30.640Z,99830.80
2019-02-18T18:54:35.850Z,99834.13
2019-02-18T18:57:41.006Z,99830.47
2019-02-18T19:00:46.197Z,99838.77
2019-02-18T19:03:51.496Z,99843.38
2019-02-18T19:06:56.816Z,99838.70
2019-02-18T19:10:02.013Z,99845.31
2019-02-18T19:13:07.262Z,99838.69
2019-02-18T19:16:12.767Z,99842.97
2019-02-18T19:19:17.936Z,99846.08
2019-02-18T19:22:23.151Z,99852.00
2019-02-18T19:25:28.298Z,99845.82
2019-02-18T19:28:33.543Z,99849.56
2019-02-18T19:31:38.700Z,99847.11
2019-02-18T19:34:43.922Z,99844.73
2019-02-18T19:37:49.209Z,99849.53
2019-02-18T19:40:54.531Z,99850.31
2019-02-18T19:43:59.710Z,99854.30
2019-02-18T19:47:04.960Z,99857.21
2019-02-18T19:50:10.249Z,99856.21
2019-02-18T19:53:15.475Z,99855.25
2019-02-18T19:56:21.135Z,99859.70
2019-02-18T19:59:26.398Z,99856.64
2019-02-18T20:02:31.630Z,99855.94
2019-02-18T20:05:36.993Z,99848.80
2019-02-18T20:08:42.150Z,99851.87
2019-02-18T20:11:47.476Z,99854.66
2019-02-18T20:14:52.638Z,99849.58
2019-02-18T20:17:57.859Z,99857.37
2019-02-18T20:21:03.051Z,99859.89
2019-02-18T20:24:09.323Z,99861.20
2019-02-18T20:27:17.265Z,99866.98
2019-02-18T20:30:22.444Z,99865.19
2019-02-18T20:33:27.578Z,99860.50
2019-02-18T20:36:32.718Z,99865.00
2019-02-18T20:39:37.926Z,99866.19
2019-02-18T20:42:43.131Z,99854.81
2019-02-18T20:45:48.273Z,99861.47
2019-02-18T20:48:54.530Z,99863.54
2019-02-18T20:51:59.659Z,99862.61
2019-02-18T20:55:05.252Z,99866.72
2019-02-18T20:58:12.019Z,99859.67
2019-02-18T21:01:17.291Z,99866.30
2019-02-18T21:04:22.493Z,99864.51
2019-02-18T21:07:27.647Z,99872.72
2019-02-18T21:10:32.826Z,99861.83
2019-02-18T21:13:37.999Z,99857.67
2019-02-18T21:16:43.212Z,99863.31
2019-02-18T21:19:48.402Z,99869.14
2019-02-18T21:22:53.744Z,99864.75
2019-02-18T21:25:58.846Z,99866.38
2019-02-18T21:29:03.978Z,99863.77
2019-02-18T21:32:09.117Z,99866.72
2019-02-18T21:35:14.382Z,99870.27
2019-02-18T21:38:19.839Z,99865.27
2019-02-18T21:41:25.054Z,99860.32
2019-02-18T21:44:30.260Z,99865.72
2019-02-18T21:47:35.393Z,99865.27
2019-02-18T21:50:40.611Z,99863.17
2019-02-18T21:53:45.747Z,99860.22
2019-02-18T21:56:50.882Z,99862.73
2019-02-18T21:59:56.031Z,99873.97
2019-02-18T22:03:01.166Z,99862.84
2019-02-18T22:06:06.477Z,99861.19
2019-02-18T22:09:11.585Z,99866.50
2019-02-18T22:12:16.767Z,99873.30
2019-02-18T22:15:21.949Z,99869.99
2019-02-18T22:18:27.201Z,99867.92
2019-02-18T22:21:32.364Z,99874.73
2019-02-18T22:24:37.620Z,99870.59
2019-02-18T22:27:43.207Z,99873.61
2019-02-18T22:30:48.388Z,99868.81
2019-02-18T22:33:53.528Z,99875.77
2019-02-18T22:36:59.119Z,99875.80
2019-02-18T22:40:04.666Z,99875.69
2019-02-18T22:43:09.814Z,99873.04
2019-02-18T22:46:15.497Z,99876.47
2019-02-18T22:49:20.706Z,99871.47
2019-02-18T22:52:25.885Z,99875.59
2019-02-18T22:55:31.294Z,99875.55
2019-02-18T22:58:36.589Z,99876.47
2019-02-18T23:01:42.583Z,99884.20
2019-02-18T23:04:47.907Z,99883.66
2019-02-18T23:07:53.064Z,99876.41
2019-02-18T23:10:58.225Z,99885.67
2019-02-18T23:14:03.380Z,99883.91
2019-02-18T23:17:08.512Z,99876.05
2019-02-18T23:20:13.760Z,99884.06
2019-02-18T23:23:18.876Z,99887.63
2019-02-18T23:26:24.060Z,99880.88
2019-02-18T23:29:29.304Z,99877.30
2019-02-18T23:32:34.454Z,99887.13
2019-02-18T23:35:39.666Z,99884.78
2019-02-18T23:38:44.781Z,99886.11
2019-02-18T23:41:49.950Z,99884.27
2019-02-18T23:44:59.249Z,99884.70
2019-02-18T23:48:03.407Z,99886.56
2019-02-18T23:51:08.622Z,99886.22
2019-02-18T23:54:13.723Z,99888.09
2019-02-18T23:57:18.914Z,99890.55
